sensor_id;sensor_type;location;lat;lon;timestamp;P1;durP1;ratioP1;P2;durP2;ratioP2
3689;SDS011;1861;50.240;8.596;2023-06-26T00:04:35;7.88;;;3.95;;
3689;SDS011;1861;50.240;8.596;2023-06-26T00:07:03;6.22;;;4.32;;
3689;SDS011;1861;50.240;8.596;2023-06-26T00:09:32;5.93;;;4.32;;
3689;SDS011;1861;50.240;8.596;2023-06-26T00:12:00;5.57;;;4.18;;
3689;SDS011;1861;50.240;8.596;2023-06-26T00:14:33;7.15;;;4.65;;
3689;SDS011;1861;50.240;8.596;2023-06-26T00:17:01;6.80;;;4.40;;
3689;SDS011;1861;50.240;8.596;2023-06-26T00:24:02;5.90;;;4.60;;
3689;SDS011;1861;50.240;8.596;2023-06-26T00:26:30;6.03;;;3.90;;
3689;SDS011;1861;50.240;8.596;2023-06-26T00:28:58;6.60;;;4.03;;
3689;SDS011;1861;50.240;8.596;2023-06-26T00:31:27;5.07;;;3.95;;
3689;SDS011;1861;50.240;8.596;2023-06-26T00:33:55;6.13;;;4.32;;
3689;SDS011;1861;50.240;8.596;2023-06-26T00:36:23;7.65;;;4.18;;
3689;SDS011;1861;50.240;8.596;2023-06-26T00:38:52;9.07;;;4.00;;
3689;SDS011;1861;50.240;8.596;2023-06-26T00:41:22;5.65;;;4.15;;
3689;SDS011;1861;50.240;8.596;2023-06-26T00:43:50;5.22;;;4.13;;
3689;SDS011;1861;50.240;8.596;2023-06-26T00:46:18;5.25;;;4.40;;
3689;SDS011;1861;50.240;8.596;2023-06-26T00:48:46;7.63;;;4.35;;
3689;SDS011;1861;50.240;8.596;2023-06-26T00:51:16;5.07;;;4.00;;
3689;SDS011;1861;50.240;8.596;2023-06-26T00:53:45;5.88;;;4.28;;
3689;SDS011;1861;50.240;8.596;2023-06-26T00:56:13;7.13;;;4.63;;
3689;SDS011;1861;50.240;8.596;2023-06-26T01:02:16;5.10;;;3.80;;
3689;SDS011;1861;50.240;8.596;2023-06-26T01:04:48;6.45;;;4.22;;
3689;SDS011;1861;50.240;8.596;2023-06-26T01:07:16;7.25;;;4.10;;
3689;SDS011;1861;50.240;8.596;2023-06-26T01:09:47;5.22;;;4.10;;
3689;SDS011;1861;50.240;8.596;2023-06-26T01:12:17;6.10;;;4.22;;
3689;SDS011;1861;50.240;8.596;2023-06-26T01:14:48;7.65;;;5.57;;
3689;SDS011;1861;50.240;8.596;2023-06-26T01:17:18;5.97;;;4.00;;
3689;SDS011;1861;50.240;8.596;2023-06-26T01:19:48;4.70;;;4.20;;
3689;SDS011;1861;50.240;8.596;2023-06-26T01:22:19;6.68;;;4.60;;
3689;SDS011;1861;50.240;8.596;2023-06-26T01:24:56;5.05;;;4.30;;
3689;SDS011;1861;50.240;8.596;2023-06-26T01:33:43;7.07;;;4.57;;
3689;SDS011;1861;50.240;8.596;2023-06-26T01:36:11;6.30;;;4.90;;
3689;SDS011;1861;50.240;8.596;2023-06-26T01:38:40;6.75;;;4.53;;
3689;SDS011;1861;50.240;8.596;2023-06-26T01:41:08;6.50;;;4.22;;
3689;SDS011;1861;50.240;8.596;2023-06-26T01:43:40;5.90;;;4.40;;
3689;SDS011;1861;50.240;8.596;2023-06-26T01:46:15;6.85;;;4.93;;
3689;SDS011;1861;50.240;8.596;2023-06-26T01:48:53;8.40;;;4.00;;
3689;SDS011;1861;50.240;8.596;2023-06-26T01:51:30;6.10;;;4.07;;
3689;SDS011;1861;50.240;8.596;2023-06-26T01:54:01;5.90;;;4.40;;
3689;SDS011;1861;50.240;8.596;2023-06-26T01:56:31;7.85;;;4.43;;
3689;SDS011;1861;50.240;8.596;2023-06-26T01:59:00;4.50;;;3.60;;
3689;SDS011;1861;50.240;8.596;2023-06-26T02:01:32;6.50;;;4.68;;
3689;SDS011;1861;50.240;8.596;2023-06-26T02:04:02;5.18;;;4.13;;
3689;SDS011;1861;50.240;8.596;2023-06-26T02:06:31;5.53;;;3.75;;
3689;SDS011;1861;50.240;8.596;2023-06-26T02:08:59;4.22;;;3.38;;
3689;SDS011;1861;50.240;8.596;2023-06-26T02:11:29;6.97;;;4.63;;
3689;SDS011;1861;50.240;8.596;2023-06-26T02:13:57;5.30;;;4.50;;
3689;SDS011;1861;50.240;8.596;2023-06-26T02:16:25;5.38;;;3.60;;
3689;SDS011;1861;50.240;8.596;2023-06-26T02:18:53;4.80;;;3.80;;
3689;SDS011;1861;50.240;8.596;2023-06-26T02:21:25;6.43;;;4.22;;
3689;SDS011;1861;50.240;8.596;2023-06-26T02:23:55;6.68;;;4.00;;
3689;SDS011;1861;50.240;8.596;2023-06-26T02:26:24;5.97;;;4.13;;
3689;SDS011;1861;50.240;8.596;2023-06-26T02:28:52;6.57;;;3.50;;
3689;SDS011;1861;50.240;8.596;2023-06-26T02:31:20;4.82;;;4.15;;
3689;SDS011;1861;50.240;8.596;2023-06-26T02:33:48;5.22;;;3.92;;
3689;SDS011;1861;50.240;8.596;2023-06-26T02:36:16;6.60;;;4.00;;
3689;SDS011;1861;50.240;8.596;2023-06-26T02:38:46;14.43;;;4.72;;
3689;SDS011;1861;50.240;8.596;2023-06-26T02:41:14;5.57;;;4.10;;
3689;SDS011;1861;50.240;8.596;2023-06-26T02:43:42;5.18;;;3.85;;
3689;SDS011;1861;50.240;8.596;2023-06-26T02:46:10;4.78;;;3.80;;
3689;SDS011;1861;50.240;8.596;2023-06-26T02:48:38;5.00;;;3.90;;
3689;SDS011;1861;50.240;8.596;2023-06-26T02:51:07;4.72;;;4.25;;
3689;SDS011;1861;50.240;8.596;2023-06-26T02:53:36;7.55;;;4.53;;
3689;SDS011;1861;50.240;8.596;2023-06-26T02:56:07;5.47;;;3.92;;
3689;SDS011;1861;50.240;8.596;2023-06-26T02:58:35;5.15;;;3.83;;
3689;SDS011;1861;50.240;8.596;2023-06-26T03:01:03;6.28;;;3.92;;
3689;SDS011;1861;50.240;8.596;2023-06-26T03:03:31;7.38;;;4.65;;
3689;SDS011;1861;50.240;8.596;2023-06-26T03:06:09;6.07;;;4.22;;
3689;SDS011;1861;50.240;8.596;2023-06-26T03:08:38;8.18;;;4.75;;
3689;SDS011;1861;50.240;8.596;2023-06-26T03:11:08;6.45;;;4.53;;
3689;SDS011;1861;50.240;8.596;2023-06-26T03:13:38;6.47;;;4.50;;
3689;SDS011;1861;50.240;8.596;2023-06-26T03:16:06;5.05;;;4.07;;
3689;SDS011;1861;50.240;8.596;2023-06-26T03:18:34;6.72;;;4.65;;
3689;SDS011;1861;50.240;8.596;2023-06-26T03:21:03;5.38;;;4.18;;
3689;SDS011;1861;50.240;8.596;2023-06-26T03:23:32;5.80;;;4.00;;
3689;SDS011;1861;50.240;8.596;2023-06-26T03:26:00;6.22;;;3.95;;
3689;SDS011;1861;50.240;8.596;2023-06-26T03:28:31;5.45;;;3.85;;
3689;SDS011;1861;50.240;8.596;2023-06-26T03:31:00;7.30;;;4.60;;
3689;SDS011;1861;50.240;8.596;2023-06-26T03:33:28;6.28;;;3.75;;
3689;SDS011;1861;50.240;8.596;2023-06-26T03:35:56;5.97;;;4.60;;
3689;SDS011;1861;50.240;8.596;2023-06-26T03:38:25;6.20;;;4.35;;
3689;SDS011;1861;50.240;8.596;2023-06-26T03:40:56;5.40;;;4.15;;
3689;SDS011;1861;50.240;8.596;2023-06-26T03:43:24;5.30;;;4.32;;
3689;SDS011;1861;50.240;8.596;2023-06-26T03:46:16;10.25;;;4.35;;
3689;SDS011;1861;50.240;8.596;2023-06-26T03:48:46;10.48;;;5.53;;
3689;SDS011;1861;50.240;8.596;2023-06-26T03:51:14;9.65;;;4.15;;
3689;SDS011;1861;50.240;8.596;2023-06-26T03:53:43;6.53;;;4.55;;
3689;SDS011;1861;50.240;8.596;2023-06-26T03:56:11;6.18;;;4.20;;
3689;SDS011;1861;50.240;8.596;2023-06-26T03:58:41;5.82;;;4.22;;
3689;SDS011;1861;50.240;8.596;2023-06-26T04:01:10;7.65;;;4.60;;
3689;SDS011;1861;50.240;8.596;2023-06-26T04:03:39;6.65;;;4.32;;
3689;SDS011;1861;50.240;8.596;2023-06-26T04:06:10;6.18;;;4.47;;
3689;SDS011;1861;50.240;8.596;2023-06-26T04:08:38;7.22;;;4.15;;
3689;SDS011;1861;50.240;8.596;2023-06-26T04:11:06;5.03;;;3.72;;
3689;SDS011;1861;50.240;8.596;2023-06-26T04:13:34;7.15;;;4.57;;
3689;SDS011;1861;50.240;8.596;2023-06-26T04:16:03;6.68;;;4.28;;
3689;SDS011;1861;50.240;8.596;2023-06-26T04:18:32;5.80;;;4.38;;
3689;SDS011;1861;50.240;8.596;2023-06-26T04:21:05;6.95;;;4.40;;
3689;SDS011;1861;50.240;8.596;2023-06-26T04:23:35;5.68;;;4.60;;
3689;SDS011;1861;50.240;8.596;2023-06-26T04:26:03;7.28;;;4.90;;
3689;SDS011;1861;50.240;8.596;2023-06-26T04:28:33;4.80;;;3.92;;
3689;SDS011;1861;50.240;8.596;2023-06-26T04:31:02;8.13;;;4.65;;
3689;SDS011;1861;50.240;8.596;2023-06-26T04:33:30;6.22;;;4.07;;
3689;SDS011;1861;50.240;8.596;2023-06-26T04:35:59;6.25;;;4.50;;
3689;SDS011;1861;50.240;8.596;2023-06-26T04:38:31;6.18;;;4.68;;
3689;SDS011;1861;50.240;8.596;2023-06-26T04:41:00;5.32;;;4.18;;
3689;SDS011;1861;50.240;8.596;2023-06-26T04:43:29;6.28;;;4.05;;
3689;SDS011;1861;50.240;8.596;2023-06-26T04:45:57;9.32;;;5.13;;
3689;SDS011;1861;50.240;8.596;2023-06-26T04:48:25;5.85;;;4.28;;
3689;SDS011;1861;50.240;8.596;2023-06-26T04:50:54;5.80;;;4.00;;
3689;SDS011;1861;50.240;8.596;2023-06-26T04:53:22;6.78;;;4.70;;
3689;SDS011;1861;50.240;8.596;2023-06-26T04:55:52;6.75;;;4.63;;
3689;SDS011;1861;50.240;8.596;2023-06-26T04:58:20;8.90;;;4.60;;
3689;SDS011;1861;50.240;8.596;2023-06-26T05:00:49;4.57;;;3.70;;
3689;SDS011;1861;50.240;8.596;2023-06-26T05:03:17;6.25;;;4.47;;
3689;SDS011;1861;50.240;8.596;2023-06-26T05:05:45;6.55;;;4.28;;
3689;SDS011;1861;50.240;8.596;2023-06-26T05:08:14;8.23;;;4.60;;
3689;SDS011;1861;50.240;8.596;2023-06-26T05:10:42;5.57;;;4.30;;
3689;SDS011;1861;50.240;8.596;2023-06-26T05:13:12;7.40;;;5.78;;
3689;SDS011;1861;50.240;8.596;2023-06-26T05:15:43;6.00;;;4.55;;
3689;SDS011;1861;50.240;8.596;2023-06-26T05:18:12;7.00;;;4.43;;
3689;SDS011;1861;50.240;8.596;2023-06-26T05:20:40;5.93;;;4.35;;
3689;SDS011;1861;50.240;8.596;2023-06-26T05:23:09;11.48;;;5.25;;
3689;SDS011;1861;50.240;8.596;2023-06-26T05:25:39;10.23;;;5.57;;
3689;SDS011;1861;50.240;8.596;2023-06-26T05:28:09;6.97;;;4.75;;
3689;SDS011;1861;50.240;8.596;2023-06-26T05:30:40;7.68;;;5.45;;
3689;SDS011;1861;50.240;8.596;2023-06-26T05:33:09;9.27;;;6.50;;
3689;SDS011;1861;50.240;8.596;2023-06-26T05:35:39;8.75;;;5.43;;
3689;SDS011;1861;50.240;8.596;2023-06-26T05:38:09;9.48;;;6.40;;
3689;SDS011;1861;50.240;8.596;2023-06-26T05:40:39;10.35;;;6.63;;
3689;SDS011;1861;50.240;8.596;2023-06-26T05:43:08;9.85;;;5.90;;
3689;SDS011;1861;50.240;8.596;2023-06-26T05:45:37;8.65;;;5.93;;
3689;SDS011;1861;50.240;8.596;2023-06-26T05:48:06;9.52;;;5.90;;
3689;SDS011;1861;50.240;8.596;2023-06-26T05:50:35;9.10;;;6.38;;
3689;SDS011;1861;50.240;8.596;2023-06-26T05:53:04;8.77;;;6.15;;
3689;SDS011;1861;50.240;8.596;2023-06-26T05:55:33;11.32;;;6.57;;
3689;SDS011;1861;50.240;8.596;2023-06-26T05:58:02;8.20;;;6.07;;
3689;SDS011;1861;50.240;8.596;2023-06-26T06:00:31;12.30;;;6.30;;
3689;SDS011;1861;50.240;8.596;2023-06-26T06:02:59;12.02;;;7.55;;
3689;SDS011;1861;50.240;8.596;2023-06-26T06:05:29;10.93;;;6.30;;
3689;SDS011;1861;50.240;8.596;2023-06-26T06:07:57;13.25;;;7.55;;
3689;SDS011;1861;50.240;8.596;2023-06-26T06:10:25;10.13;;;6.65;;
3689;SDS011;1861;50.240;8.596;2023-06-26T06:12:54;16.63;;;7.80;;
3689;SDS011;1861;50.240;8.596;2023-06-26T06:15:22;13.35;;;6.65;;
3689;SDS011;1861;50.240;8.596;2023-06-26T06:17:50;9.73;;;7.25;;
3689;SDS011;1861;50.240;8.596;2023-06-26T06:20:19;8.30;;;6.15;;
3689;SDS011;1861;50.240;8.596;2023-06-26T06:22:48;12.50;;;7.47;;
3689;SDS011;1861;50.240;8.596;2023-06-26T06:25:17;11.18;;;6.93;;
3689;SDS011;1861;50.240;8.596;2023-06-26T06:27:46;9.88;;;7.10;;
3689;SDS011;1861;50.240;8.596;2023-06-26T06:30:14;9.43;;;6.63;;
3689;SDS011;1861;50.240;8.596;2023-06-26T06:32:43;8.40;;;6.35;;
3689;SDS011;1861;50.240;8.596;2023-06-26T06:35:12;9.50;;;6.95;;
3689;SDS011;1861;50.240;8.596;2023-06-26T06:37:40;9.10;;;5.70;;
3689;SDS011;1861;50.240;8.596;2023-06-26T06:40:10;6.32;;;5.53;;
3689;SDS011;1861;50.240;8.596;2023-06-26T06:42:39;9.68;;;5.18;;
3689;SDS011;1861;50.240;8.596;2023-06-26T06:45:07;9.02;;;5.60;;
3689;SDS011;1861;50.240;8.596;2023-06-26T06:47:37;9.48;;;5.47;;
3689;SDS011;1861;50.240;8.596;2023-06-26T06:50:05;12.00;;;6.60;;
3689;SDS011;1861;50.240;8.596;2023-06-26T06:52:36;8.90;;;5.65;;
3689;SDS011;1861;50.240;8.596;2023-06-26T06:55:05;7.25;;;4.97;;
3689;SDS011;1861;50.240;8.596;2023-06-26T06:57:37;7.38;;;5.13;;
3689;SDS011;1861;50.240;8.596;2023-06-26T07:00:06;7.00;;;4.90;;
3689;SDS011;1861;50.240;8.596;2023-06-26T07:02:36;8.98;;;5.68;;
3689;SDS011;1861;50.240;8.596;2023-06-26T07:05:06;7.22;;;4.75;;
3689;SDS011;1861;50.240;8.596;2023-06-26T07:07:34;6.88;;;4.43;;
3689;SDS011;1861;50.240;8.596;2023-06-26T07:10:04;7.60;;;5.40;;
3689;SDS011;1861;50.240;8.596;2023-06-26T07:12:34;6.30;;;4.85;;
3689;SDS011;1861;50.240;8.596;2023-06-26T07:15:04;6.95;;;4.40;;
3689;SDS011;1861;50.240;8.596;2023-06-26T07:17:33;7.53;;;4.25;;
3689;SDS011;1861;50.240;8.596;2023-06-26T07:20:04;6.53;;;4.95;;
3689;SDS011;1861;50.240;8.596;2023-06-26T07:22:35;7.75;;;4.85;;
3689;SDS011;1861;50.240;8.596;2023-06-26T07:25:04;12.30;;;4.95;;
3689;SDS011;1861;50.240;8.596;2023-06-26T07:27:36;5.35;;;4.15;;
3689;SDS011;1861;50.240;8.596;2023-06-26T07:30:06;8.70;;;5.40;;
3689;SDS011;1861;50.240;8.596;2023-06-26T07:32:35;6.28;;;4.75;;
3689;SDS011;1861;50.240;8.596;2023-06-26T07:35:06;8.55;;;4.32;;
3689;SDS011;1861;50.240;8.596;2023-06-26T07:42:05;8.88;;;4.70;;
3689;SDS011;1861;50.240;8.596;2023-06-26T07:44:33;13.57;;;4.30;;
3689;SDS011;1861;50.240;8.596;2023-06-26T07:51:40;11.32;;;5.07;;
3689;SDS011;1861;50.240;8.596;2023-06-26T07:54:08;8.38;;;5.55;;
3689;SDS011;1861;50.240;8.596;2023-06-26T07:56:51;9.18;;;5.40;;
3689;SDS011;1861;50.240;8.596;2023-06-26T07:59:20;9.25;;;5.65;;
3689;SDS011;1861;50.240;8.596;2023-06-26T08:01:49;7.43;;;5.35;;
3689;SDS011;1861;50.240;8.596;2023-06-26T08:04:19;8.02;;;4.93;;
3689;SDS011;1861;50.240;8.596;2023-06-26T08:06:49;7.47;;;5.07;;
3689;SDS011;1861;50.240;8.596;2023-06-26T08:09:19;5.85;;;4.72;;
3689;SDS011;1861;50.240;8.596;2023-06-26T08:11:48;11.73;;;5.05;;
3689;SDS011;1861;50.240;8.596;2023-06-26T08:14:17;8.57;;;4.90;;
3689;SDS011;1861;50.240;8.596;2023-06-26T08:16:45;8.93;;;5.55;;
3689;SDS011;1861;50.240;8.596;2023-06-26T08:19:14;9.43;;;5.80;;
3689;SDS011;1861;50.240;8.596;2023-06-26T08:21:43;8.90;;;5.68;;
3689;SDS011;1861;50.240;8.596;2023-06-26T08:24:14;8.60;;;5.15;;
3689;SDS011;1861;50.240;8.596;2023-06-26T08:26:45;7.50;;;5.57;;
3689;SDS011;1861;50.240;8.596;2023-06-26T08:29:13;8.82;;;5.97;;
3689;SDS011;1861;50.240;8.596;2023-06-26T08:31:42;8.80;;;5.45;;
3689;SDS011;1861;50.240;8.596;2023-06-26T08:34:10;8.50;;;4.88;;
3689;SDS011;1861;50.240;8.596;2023-06-26T08:36:38;12.48;;;5.80;;
3689;SDS011;1861;50.240;8.596;2023-06-26T08:39:07;5.88;;;4.70;;
3689;SDS011;1861;50.240;8.596;2023-06-26T08:41:36;8.52;;;5.18;;
3689;SDS011;1861;50.240;8.596;2023-06-26T08:44:05;6.57;;;5.22;;
3689;SDS011;1861;50.240;8.596;2023-06-26T08:46:33;7.35;;;5.57;;
3689;SDS011;1861;50.240;8.596;2023-06-26T08:49:03;6.45;;;4.63;;
3689;SDS011;1861;50.240;8.596;2023-06-26T08:51:37;10.63;;;6.32;;
3689;SDS011;1861;50.240;8.596;2023-06-26T08:54:09;9.60;;;5.35;;
3689;SDS011;1861;50.240;8.596;2023-06-26T08:56:42;8.75;;;5.63;;
3689;SDS011;1861;50.240;8.596;2023-06-26T08:59:12;6.85;;;4.43;;
3689;SDS011;1861;50.240;8.596;2023-06-26T09:01:41;5.85;;;4.32;;
3689;SDS011;1861;50.240;8.596;2023-06-26T09:04:09;5.72;;;4.30;;
3689;SDS011;1861;50.240;8.596;2023-06-26T09:06:38;6.88;;;4.30;;
3689;SDS011;1861;50.240;8.596;2023-06-26T09:09:06;6.00;;;3.90;;
3689;SDS011;1861;50.240;8.596;2023-06-26T09:11:35;5.38;;;4.53;;
3689;SDS011;1861;50.240;8.596;2023-06-26T09:14:04;5.53;;;4.15;;
3689;SDS011;1861;50.240;8.596;2023-06-26T09:16:39;4.63;;;3.58;;
3689;SDS011;1861;50.240;8.596;2023-06-26T09:19:09;4.72;;;3.60;;
3689;SDS011;1861;50.240;8.596;2023-06-26T09:21:38;5.55;;;4.30;;
3689;SDS011;1861;50.240;8.596;2023-06-26T09:24:07;6.10;;;3.90;;
3689;SDS011;1861;50.240;8.596;2023-06-26T09:26:35;6.22;;;3.47;;
3689;SDS011;1861;50.240;8.596;2023-06-26T09:29:06;4.75;;;4.25;;
3689;SDS011;1861;50.240;8.596;2023-06-26T09:31:35;6.40;;;4.25;;
3689;SDS011;1861;50.240;8.596;2023-06-26T09:34:08;6.10;;;4.15;;
3689;SDS011;1861;50.240;8.596;2023-06-26T09:36:37;6.30;;;4.35;;
3689;SDS011;1861;50.240;8.596;2023-06-26T09:39:07;9.48;;;4.60;;
3689;SDS011;1861;50.240;8.596;2023-06-26T09:41:40;5.07;;;4.00;;
3689;SDS011;1861;50.240;8.596;2023-06-26T09:44:10;4.25;;;3.58;;
3689;SDS011;1861;50.240;8.596;2023-06-26T09:46:40;5.85;;;4.40;;
3689;SDS011;1861;50.240;8.596;2023-06-26T09:49:09;5.22;;;4.25;;
3689;SDS011;1861;50.240;8.596;2023-06-26T09:51:39;5.50;;;4.32;;
3689;SDS011;1861;50.240;8.596;2023-06-26T09:54:09;5.40;;;4.15;;
3689;SDS011;1861;50.240;8.596;2023-06-26T09:56:37;4.68;;;3.83;;
3689;SDS011;1861;50.240;8.596;2023-06-26T09:59:05;4.20;;;3.60;;
3689;SDS011;1861;50.240;8.596;2023-06-26T10:01:39;8.73;;;5.00;;
3689;SDS011;1861;50.240;8.596;2023-06-26T10:04:08;6.85;;;5.03;;
3689;SDS011;1861;50.240;8.596;2023-06-26T10:06:39;8.30;;;4.63;;
3689;SDS011;1861;50.240;8.596;2023-06-26T10:09:12;6.18;;;3.60;;
3689;SDS011;1861;50.240;8.596;2023-06-26T10:11:46;4.05;;;3.70;;
3689;SDS011;1861;50.240;8.596;2023-06-26T10:14:18;10.55;;;5.47;;
3689;SDS011;1861;50.240;8.596;2023-06-26T10:16:50;5.93;;;4.10;;
3689;SDS011;1861;50.240;8.596;2023-06-26T10:19:19;6.43;;;4.60;;
3689;SDS011;1861;50.240;8.596;2023-06-26T10:21:51;7.03;;;4.85;;
3689;SDS011;1861;50.240;8.596;2023-06-26T10:24:21;4.70;;;4.05;;
3689;SDS011;1861;50.240;8.596;2023-06-26T10:26:52;5.78;;;3.88;;
3689;SDS011;1861;50.240;8.596;2023-06-26T10:29:24;4.90;;;4.15;;
3689;SDS011;1861;50.240;8.596;2023-06-26T10:31:55;5.07;;;3.85;;
3689;SDS011;1861;50.240;8.596;2023-06-26T10:34:29;8.65;;;3.72;;
3689;SDS011;1861;50.240;8.596;2023-06-26T10:36:58;4.20;;;3.25;;
3689;SDS011;1861;50.240;8.596;2023-06-26T10:39:27;5.03;;;3.72;;
3689;SDS011;1861;50.240;8.596;2023-06-26T10:42:13;5.05;;;4.55;;
3689;SDS011;1861;50.240;8.596;2023-06-26T10:44:42;7.20;;;4.68;;
3689;SDS011;1861;50.240;8.596;2023-06-26T10:47:28;5.25;;;4.07;;
3689;SDS011;1861;50.240;8.596;2023-06-26T10:55:35;4.20;;;3.45;;
3689;SDS011;1861;50.240;8.596;2023-06-26T10:58:03;5.85;;;3.50;;
3689;SDS011;1861;50.240;8.596;2023-06-26T11:00:32;4.10;;;3.20;;
3689;SDS011;1861;50.240;8.596;2023-06-26T11:03:01;3.95;;;3.42;;
3689;SDS011;1861;50.240;8.596;2023-06-26T11:06:03;4.63;;;3.10;;
3689;SDS011;1861;50.240;8.596;2023-06-26T11:08:46;4.70;;;3.20;;
3689;SDS011;1861;50.240;8.596;2023-06-26T11:11:14;4.18;;;3.58;;
3689;SDS011;1861;50.240;8.596;2023-06-26T11:13:44;3.40;;;2.80;;
3689;SDS011;1861;50.240;8.596;2023-06-26T11:16:14;5.07;;;3.75;;
3689;SDS011;1861;50.240;8.596;2023-06-26T11:18:44;3.55;;;3.10;;
3689;SDS011;1861;50.240;8.596;2023-06-26T11:21:12;4.38;;;3.53;;
3689;SDS011;1861;50.240;8.596;2023-06-26T11:23:41;4.63;;;3.42;;
3689;SDS011;1861;50.240;8.596;2023-06-26T11:26:16;3.58;;;2.92;;
3689;SDS011;1861;50.240;8.596;2023-06-26T11:28:48;4.93;;;3.10;;
3689;SDS011;1861;50.240;8.596;2023-06-26T11:31:26;3.70;;;3.35;;
3689;SDS011;1861;50.240;8.596;2023-06-26T11:33:58;5.25;;;3.60;;
3689;SDS011;1861;50.240;8.596;2023-06-26T11:36:27;4.93;;;3.63;;
3689;SDS011;1861;50.240;8.596;2023-06-26T11:38:57;3.45;;;2.90;;
3689;SDS011;1861;50.240;8.596;2023-06-26T11:41:26;4.18;;;3.17;;
3689;SDS011;1861;50.240;8.596;2023-06-26T11:43:59;5.80;;;3.83;;
3689;SDS011;1861;50.240;8.596;2023-06-26T11:46:31;5.72;;;3.25;;
3689;SDS011;1861;50.240;8.596;2023-06-26T11:49:02;4.70;;;3.40;;
3689;SDS011;1861;50.240;8.596;2023-06-26T11:51:30;4.40;;;3.40;;
3689;SDS011;1861;50.240;8.596;2023-06-26T11:54:00;4.43;;;3.00;;
3689;SDS011;1861;50.240;8.596;2023-06-26T11:56:30;3.50;;;3.20;;
3689;SDS011;1861;50.240;8.596;2023-06-26T11:58:59;4.05;;;3.05;;
3689;SDS011;1861;50.240;8.596;2023-06-26T12:01:32;2.60;;;2.38;;
3689;SDS011;1861;50.240;8.596;2023-06-26T12:04:04;3.20;;;2.90;;
3689;SDS011;1861;50.240;8.596;2023-06-26T12:06:35;4.43;;;2.88;;
3689;SDS011;1861;50.240;8.596;2023-06-26T12:09:05;4.95;;;3.38;;
3689;SDS011;1861;50.240;8.596;2023-06-26T12:11:36;3.90;;;2.50;;
3689;SDS011;1861;50.240;8.596;2023-06-26T12:14:06;4.65;;;3.42;;
3689;SDS011;1861;50.240;8.596;2023-06-26T12:16:35;3.88;;;3.00;;
3689;SDS011;1861;50.240;8.596;2023-06-26T12:19:05;3.58;;;2.55;;
3689;SDS011;1861;50.240;8.596;2023-06-26T12:21:45;3.70;;;2.95;;
3689;SDS011;1861;50.240;8.596;2023-06-26T12:24:19;3.50;;;2.75;;
3689;SDS011;1861;50.240;8.596;2023-06-26T12:26:49;3.78;;;3.17;;
3689;SDS011;1861;50.240;8.596;2023-06-26T12:29:20;3.05;;;2.53;;
3689;SDS011;1861;50.240;8.596;2023-06-26T12:31:49;4.45;;;2.95;;
3689;SDS011;1861;50.240;8.596;2023-06-26T12:34:20;4.03;;;3.55;;
3689;SDS011;1861;50.240;8.596;2023-06-26T12:36:52;3.35;;;2.80;;
3689;SDS011;1861;50.240;8.596;2023-06-26T12:39:22;2.95;;;2.33;;
3689;SDS011;1861;50.240;8.596;2023-06-26T12:41:52;4.18;;;2.63;;
3689;SDS011;1861;50.240;8.596;2023-06-26T12:44:22;3.80;;;3.42;;
3689;SDS011;1861;50.240;8.596;2023-06-26T12:46:54;3.30;;;2.88;;
3689;SDS011;1861;50.240;8.596;2023-06-26T12:49:32;3.47;;;3.15;;
3689;SDS011;1861;50.240;8.596;2023-06-26T12:52:02;5.75;;;3.33;;
3689;SDS011;1861;50.240;8.596;2023-06-26T12:54:32;3.92;;;3.53;;
3689;SDS011;1861;50.240;8.596;2023-06-26T12:57:01;6.63;;;3.47;;
3689;SDS011;1861;50.240;8.596;2023-06-26T12:59:30;3.53;;;2.88;;
3689;SDS011;1861;50.240;8.596;2023-06-26T13:01:59;3.67;;;2.78;;
3689;SDS011;1861;50.240;8.596;2023-06-26T13:04:27;3.90;;;2.65;;
3689;SDS011;1861;50.240;8.596;2023-06-26T13:06:57;4.32;;;2.83;;
3689;SDS011;1861;50.240;8.596;2023-06-26T13:09:25;4.13;;;3.17;;
3689;SDS011;1861;50.240;8.596;2023-06-26T13:11:54;3.60;;;3.13;;
3689;SDS011;1861;50.240;8.596;2023-06-26T13:14:22;4.90;;;3.10;;
3689;SDS011;1861;50.240;8.596;2023-06-26T13:16:50;3.75;;;3.35;;
3689;SDS011;1861;50.240;8.596;2023-06-26T13:19:18;6.57;;;2.80;;
3689;SDS011;1861;50.240;8.596;2023-06-26T13:21:47;3.47;;;3.05;;
3689;SDS011;1861;50.240;8.596;2023-06-26T13:24:16;4.05;;;3.45;;
3689;SDS011;1861;50.240;8.596;2023-06-26T13:26:44;3.22;;;2.90;;
3689;SDS011;1861;50.240;8.596;2023-06-26T13:29:12;3.38;;;2.97;;
3689;SDS011;1861;50.240;8.596;2023-06-26T13:31:41;3.42;;;2.60;;
3689;SDS011;1861;50.240;8.596;2023-06-26T13:34:09;4.50;;;2.95;;
3689;SDS011;1861;50.240;8.596;2023-06-26T13:36:48;3.92;;;2.90;;
3689;SDS011;1861;50.240;8.596;2023-06-26T13:39:18;4.88;;;2.50;;
3689;SDS011;1861;50.240;8.596;2023-06-26T13:41:46;5.07;;;3.15;;
3689;SDS011;1861;50.240;8.596;2023-06-26T13:44:14;3.70;;;2.67;;
3689;SDS011;1861;50.240;8.596;2023-06-26T13:46:57;4.80;;;2.90;;
3689;SDS011;1861;50.240;8.596;2023-06-26T13:49:25;3.72;;;2.60;;
3689;SDS011;1861;50.240;8.596;2023-06-26T13:51:54;3.75;;;3.17;;
3689;SDS011;1861;50.240;8.596;2023-06-26T13:54:24;3.65;;;3.25;;
3689;SDS011;1861;50.240;8.596;2023-06-26T13:56:52;3.17;;;2.10;;
3689;SDS011;1861;50.240;8.596;2023-06-26T13:59:24;5.28;;;3.08;;
3689;SDS011;1861;50.240;8.596;2023-06-26T14:01:52;3.40;;;2.28;;
3689;SDS011;1861;50.240;8.596;2023-06-26T14:04:20;3.83;;;2.95;;
3689;SDS011;1861;50.240;8.596;2023-06-26T14:06:48;4.40;;;3.05;;
3689;SDS011;1861;50.240;8.596;2023-06-26T14:09:16;3.17;;;2.60;;
3689;SDS011;1861;50.240;8.596;2023-06-26T14:11:46;3.70;;;2.85;;
3689;SDS011;1861;50.240;8.596;2023-06-26T14:14:14;5.05;;;2.47;;
3689;SDS011;1861;50.240;8.596;2023-06-26T14:16:42;2.83;;;2.35;;
3689;SDS011;1861;50.240;8.596;2023-06-26T14:19:10;4.68;;;2.63;;
3689;SDS011;1861;50.240;8.596;2023-06-26T14:21:40;15.80;;;2.65;;
3689;SDS011;1861;50.240;8.596;2023-06-26T14:24:09;4.18;;;2.60;;
3689;SDS011;1861;50.240;8.596;2023-06-26T14:26:37;4.35;;;2.42;;
3689;SDS011;1861;50.240;8.596;2023-06-26T14:29:06;4.13;;;2.40;;
3689;SDS011;1861;50.240;8.596;2023-06-26T14:31:35;3.03;;;2.60;;
3689;SDS011;1861;50.240;8.596;2023-06-26T14:34:03;10.40;;;2.63;;
3689;SDS011;1861;50.240;8.596;2023-06-26T14:36:31;5.28;;;3.38;;
3689;SDS011;1861;50.240;8.596;2023-06-26T14:38:59;7.55;;;3.60;;
3689;SDS011;1861;50.240;8.596;2023-06-26T14:41:29;2.88;;;2.58;;
3689;SDS011;1861;50.240;8.596;2023-06-26T14:43:58;10.95;;;2.85;;
3689;SDS011;1861;50.240;8.596;2023-06-26T14:46:29;5.32;;;2.80;;
3689;SDS011;1861;50.240;8.596;2023-06-26T14:48:58;9.57;;;3.67;;
3689;SDS011;1861;50.240;8.596;2023-06-26T14:51:26;7.43;;;4.22;;
3689;SDS011;1861;50.240;8.596;2023-06-26T14:53:54;7.93;;;3.30;;
3689;SDS011;1861;50.240;8.596;2023-06-26T14:56:22;6.80;;;3.60;;
3689;SDS011;1861;50.240;8.596;2023-06-26T14:58:50;4.93;;;2.72;;
3689;SDS011;1861;50.240;8.596;2023-06-26T15:01:19;9.23;;;3.47;;
3689;SDS011;1861;50.240;8.596;2023-06-26T15:03:50;8.05;;;4.30;;
3689;SDS011;1861;50.240;8.596;2023-06-26T15:06:18;6.30;;;3.47;;
3689;SDS011;1861;50.240;8.596;2023-06-26T15:08:46;5.70;;;3.63;;
3689;SDS011;1861;50.240;8.596;2023-06-26T15:11:14;8.32;;;4.50;;
3689;SDS011;1861;50.240;8.596;2023-06-26T15:13:42;9.25;;;3.72;;
3689;SDS011;1861;50.240;8.596;2023-06-26T15:16:10;13.27;;;4.78;;
3689;SDS011;1861;50.240;8.596;2023-06-26T15:18:38;6.30;;;3.47;;
3689;SDS011;1861;50.240;8.596;2023-06-26T15:21:09;7.03;;;3.75;;
3689;SDS011;1861;50.240;8.596;2023-06-26T15:23:37;7.68;;;4.22;;
3689;SDS011;1861;50.240;8.596;2023-06-26T15:26:06;11.98;;;5.05;;
3689;SDS011;1861;50.240;8.596;2023-06-26T15:28:34;9.77;;;3.88;;
3689;SDS011;1861;50.240;8.596;2023-06-26T15:31:02;13.82;;;5.15;;
3689;SDS011;1861;50.240;8.596;2023-06-26T15:33:30;13.65;;;5.10;;
3689;SDS011;1861;50.240;8.596;2023-06-26T15:35:59;8.90;;;4.32;;
3689;SDS011;1861;50.240;8.596;2023-06-26T15:38:31;6.90;;;3.70;;
3689;SDS011;1861;50.240;8.596;2023-06-26T15:40:59;12.38;;;4.50;;
3689;SDS011;1861;50.240;8.596;2023-06-26T15:43:28;9.70;;;4.80;;
3689;SDS011;1861;50.240;8.596;2023-06-26T15:45:56;12.23;;;5.53;;
3689;SDS011;1861;50.240;8.596;2023-06-26T15:48:25;11.10;;;5.07;;
3689;SDS011;1861;50.240;8.596;2023-06-26T15:50:55;11.90;;;4.22;;
3689;SDS011;1861;50.240;8.596;2023-06-26T15:53:24;11.65;;;4.85;;
3689;SDS011;1861;50.240;8.596;2023-06-26T15:56:05;8.68;;;4.13;;
3689;SDS011;1861;50.240;8.596;2023-06-26T15:58:35;9.68;;;4.07;;
3689;SDS011;1861;50.240;8.596;2023-06-26T16:01:08;8.52;;;3.20;;
3689;SDS011;1861;50.240;8.596;2023-06-26T16:03:36;8.32;;;4.13;;